Huvudsida
METAR-TAF:

METAR-TAF

Flygplatser :

La Chaux-de-Fonds, Schweiz

latitud: 47-05-03N, longitud: 006-47-37E, höjd: 1027 m

Aktuellt väderrapport

Denna rapport gjordes för 18 minuter sedan, klockan 08:20 UTC
Vind 3 kt från sydväst
Temperatur 0°C
Fuktighet 69%
Tryck 1030 hPa
Sikt 10 km eller mer
Inga moln under 1 500 m eller inga cumulonimbus

METAR: LSGC 220820Z 23003KT CAVOK M00/M05 Q1030

Tid: 09:38 (08:38 UTC)

Väderprognos

Denna rapport gjordes för 13 minuter sedan, klockan 08:25 UTC
Prognos gäller från 22 kl. 09 UTC till 22 kl. 18 UTC
Vind 5 kt från väst/sydväst
Sikt 10 km eller mer
Inga moln under 1 500 m eller inga cumulonimbus

TAF: LSGC 220825Z 2209/2218 24005KT CAVOK

Aktuella väderrapporter och prognoser från 4000 flygplatser (METAR- och TAF-rapporter).

De tillgängliga stationerna syns som gula och röda prickar på kartan.

För musen över prickarna för att se namnen på stationerna.

Klicka sedan för att få väderrapporter och prognoser.

För att ändra kartan: Klicka på de gröna knapparna med ett svart kors på för att zooma in; den gröna knappen med ett streck på för att zooma ut; eller på de gröna pilarna för angränsande kartor.


METAR-TAF: